Terminal Aerodrome Forecast
Issued by NWS Wakefield, VA

Home | Current Version | Previous Version | Text Only | Print | Product List | Glossary On
Versions: 1 2 3 4 5 6 7 8 9 10 11 12 13
000
FTUS41 KAKQ 311136
TAFECG
TAF
KECG 311136Z 3112/0112 22004KT P6SM VCSH BKN070 OVC100
     FM311400 20008KT 6SM -RA BR BKN040 OVC080
     FM311800 19008KT P6SM BKN040 OVC080
     FM312200 20006KT P6SM BKN040 OVC100=

USA.gov is the U.S. government's official web portal to all federal, state and local government web resources and services.